TimeEST,TemperatureF,Dew PointF,Humidity,Sea Level PressureIn,VisibilityMPH,Wind Direction,Wind SpeedMPH,Gust SpeedMPH,PrecipitationIn,Events,Conditions,WindDirDegrees,DateUTC
12:51 AM,26.1,23.0,88,30.33,8.0,Calm,Calm,-,N/A,,Clear,0,2012-12-14 05:51:00
1:51 AM,24.8,21.2,86,30.31,7.0,Calm,Calm,-,N/A,,Clear,0,2012-12-14 06:51:00
2:51 AM,25.0,21.0,85,30.32,6.0,Calm,Calm,-,N/A,,Clear,0,2012-12-14 07:51:00
3:51 AM,21.9,19.0,89,30.30,6.0,Calm,Calm,-,N/A,,Clear,0,2012-12-14 08:51:00
4:51 AM,23.0,19.9,88,30.30,6.0,Calm,Calm,-,N/A,,Clear,0,2012-12-14 09:51:00
5:51 AM,21.9,19.0,89,30.29,6.0,Calm,Calm,-,N/A,,Clear,0,2012-12-14 10:51:00
6:51 AM,21.0,18.0,88,30.30,7.0,Calm,Calm,-,N/A,,Clear,0,2012-12-14 11:51:00
7:51 AM,23.0,21.0,92,30.30,5.0,Calm,Calm,-,N/A,,Clear,0,2012-12-14 12:51:00
8:51 AM,28.0,25.0,88,30.30,8.0,WSW,3.5,-,N/A,,Clear,250,2012-12-14 13:51:00
9:51 AM,35.1,27.0,72,30.29,7.0,SW,4.6,-,N/A,,Clear,230,2012-12-14 14:51:00
10:51 AM,39.9,28.0,63,30.27,9.0,WSW,5.8,-,N/A,,Clear,250,2012-12-14 15:51:00
11:51 AM,43.0,28.0,56,30.23,10.0,SW,8.1,-,N/A,,Clear,220,2012-12-14 16:51:00
12:51 PM,45.0,28.0,52,30.21,10.0,SW,11.5,-,N/A,,Clear,220,2012-12-14 17:51:00
1:51 PM,48.0,27.0,44,30.20,10.0,WSW,11.5,-,N/A,,Clear,240,2012-12-14 18:51:00
2:51 PM,46.9,28.0,48,30.19,10.0,WSW,10.4,-,N/A,,Clear,250,2012-12-14 19:51:00
3:51 PM,45.0,28.0,52,30.19,10.0,WSW,8.1,-,N/A,,Clear,240,2012-12-14 20:51:00
4:51 PM,36.0,27.0,70,30.20,10.0,SW,5.8,-,N/A,,Clear,220,2012-12-14 21:51:00
5:51 PM,37.9,27.0,65,30.21,10.0,SW,4.6,-,N/A,,Clear,220,2012-12-14 22:51:00
6:51 PM,37.0,26.1,65,30.23,10.0,Calm,Calm,-,N/A,,Clear,0,2012-12-14 23:51:00
7:51 PM,33.1,26.1,75,30.25,10.0,Calm,Calm,-,N/A,,Clear,0,2012-12-15 00:51:00
8:51 PM,33.1,26.1,75,30.25,10.0,Calm,Calm,-,N/A,,Clear,0,2012-12-15 01:51:00
9:51 PM,30.0,25.0,82,30.25,10.0,Calm,Calm,-,N/A,,Clear,0,2012-12-15 02:51:00
10:51 PM,30.0,25.0,82,30.26,10.0,NW,5.8,-,N/A,,Clear,310,2012-12-15 03:51:00
11:51 PM,27.0,23.0,85,30.26,10.0,Calm,Calm,-,N/A,,Clear,0,2012-12-15 04:51:00